Time;durP1;ratioP1;P1;durP2;ratioP2;P2;SDS_P1;SDS_P2;PMS_P1;PMS_P2;Temp;Humidity;BMP_temperature;BMP_pressure;BME280_temperature;BME280_humidity;BME280_pressure;Samples;Min_cycle;Max_cycle;Signal;HPM_P1;HPM_P2
2023/12/27 00:01:15;;;;;;;0.30;0.30;;;;;;;9.25;100.00;99151.66;4983545;28;20487;-77
2023/12/27 00:03:40;;;;;;;0.30;0.30;;;;;;;9.27;100.00;99145.28;4983209;28;20025;-77
2023/12/27 00:06:06;;;;;;;0.40;0.40;;;;;;;9.30;100.00;99134.94;5015570;28;20033;-77
2023/12/27 00:08:37;;;;;;;0.40;0.40;;;;;;;9.32;100.00;99140.13;4999318;28;20141;-77
2023/12/27 00:11:03;;;;;;;0.30;0.30;;;;;;;9.34;100.00;99132.66;4983149;28;20044;-77
2023/12/27 00:13:29;;;;;;;0.30;0.30;;;;;;;9.36;100.00;99118.00;4999497;28;20038;-77
2023/12/27 00:15:54;;;;;;;0.40;0.40;;;;;;;9.39;100.00;99108.72;4983067;28;20369;-78
2023/12/27 00:18:20;;;;;;;0.40;0.40;;;;;;;9.43;100.00;99105.41;4999189;28;20432;-77
2023/12/27 00:20:47;;;;;;;4.15;3.80;;;;;;;9.47;100.00;99103.13;5015494;28;20432;-77
2023/12/27 00:23:13;;;;;;;0.40;0.40;;;;;;;9.46;100.00;99080.03;4983180;28;20100;-77
2023/12/27 00:25:42;;;;;;;0.30;0.30;;;;;;;9.57;100.00;99078.56;4982900;28;20030;-77
2023/12/27 00:28:10;;;;;;;0.30;0.30;;;;;;;9.60;100.00;99072.78;5015329;28;20120;-76
2023/12/27 00:30:36;;;;;;;0.32;0.32;;;;;;;9.67;100.00;99074.41;4983140;28;20025;-79
2023/12/27 00:33:02;;;;;;;0.30;0.30;;;;;;;9.75;100.00;99064.47;4998815;28;20530;-76
2023/12/27 00:35:30;;;;;;;0.40;0.40;;;;;;;9.85;100.00;99051.44;4998526;28;20042;-77
2023/12/27 00:37:58;;;;;;;0.40;0.40;;;;;;;9.93;100.00;99035.09;4998289;28;20034;-78
2023/12/27 00:40:30;;;;;;;0.30;0.30;;;;;;;9.97;100.00;99028.22;5015042;28;20037;-77
2023/12/27 00:42:56;;;;;;;0.30;0.30;;;;;;;10.08;100.00;99027.56;5015895;28;20033;-76
2023/12/27 00:45:22;;;;;;;0.30;0.30;;;;;;;10.13;100.00;99011.66;5014815;28;20454;-76
2023/12/27 00:47:47;;;;;;;0.40;0.40;;;;;;;10.17;100.00;99005.84;4998870;28;20052;-76
2023/12/27 00:50:13;;;;;;;0.30;0.30;;;;;;;10.20;100.00;98997.34;4999016;28;20036;-77
2023/12/27 00:52:39;;;;;;;0.30;0.30;;;;;;;10.20;100.00;98994.66;5014835;28;20046;-76
2023/12/27 00:55:05;;;;;;;0.30;0.30;;;;;;;10.25;100.00;98987.59;4998602;28;20032;-76
2023/12/27 00:57:31;;;;;;;0.40;0.40;;;;;;;10.31;100.00;98969.81;4982051;28;20038;-78
2023/12/27 00:59:59;;;;;;;0.35;0.35;;;;;;;10.34;100.00;98972.06;4998193;28;20076;-76
2023/12/27 01:02:27;;;;;;;0.38;0.38;;;;;;;10.36;100.00;98958.41;4998574;28;20025;-77
2023/12/27 01:04:55;;;;;;;0.30;0.30;;;;;;;10.32;100.00;98947.28;5014402;28;20105;-77
2023/12/27 01:07:22;;;;;;;0.40;0.40;;;;;;;10.37;100.00;98950.13;4998777;28;20056;-77
2023/12/27 01:09:50;;;;;;;0.40;0.40;;;;;;;10.39;100.00;98933.78;5015956;28;20022;-76
2023/12/27 01:12:16;;;;;;;0.30;0.30;;;;;;;10.41;100.00;98927.16;4998232;28;20053;-76
2023/12/27 01:14:43;;;;;;;0.30;0.30;;;;;;;10.41;100.00;98931.72;4981951;28;20173;-77
2023/12/27 01:17:09;;;;;;;0.30;0.30;;;;;;;10.41;100.00;98902.97;4998465;28;20093;-76
2023/12/27 01:19:39;;;;;;;0.40;0.40;;;;;;;10.44;100.00;98904.41;4998152;28;20391;-76
2023/12/27 01:22:04;;;;;;;0.30;0.30;;;;;;;10.48;100.00;98902.94;4998811;28;20029;-77
2023/12/27 01:24:33;;;;;;;0.38;0.38;;;;;;;10.50;100.00;98906.19;5014674;28;20038;-77
2023/12/27 01:26:58;;;;;;;0.30;0.30;;;;;;;10.49;100.00;98894.63;4998060;28;20171;-77
2023/12/27 01:29:24;;;;;;;0.30;0.30;;;;;;;10.53;100.00;98903.06;5014205;28;20120;-77
2023/12/27 01:31:50;;;;;;;0.40;0.40;;;;;;;10.56;100.00;98891.91;5014058;28;20069;-77
2023/12/27 01:34:18;;;;;;;0.30;0.30;;;;;;;10.54;100.00;98867.09;4981799;28;20380;-76
2023/12/27 01:36:44;;;;;;;0.32;0.32;;;;;;;10.55;100.00;98869.56;4997793;28;20037;-76
2023/12/27 01:39:10;;;;;;;0.30;0.30;;;;;;;10.53;100.00;98857.38;5013709;28;20492;-77
2023/12/27 01:41:36;;;;;;;0.35;0.35;;;;;;;10.56;100.00;98849.72;4997127;28;20033;-76
2023/12/27 01:44:01;;;;;;;0.30;0.30;;;;;;;10.57;100.00;98834.41;5014046;28;20384;-77
2023/12/27 01:46:30;;;;;;;0.40;0.40;;;;;;;10.59;100.00;98842.25;4997477;28;20558;-77
2023/12/27 01:49:00;;;;;;;0.30;0.30;;;;;;;10.57;100.00;98819.09;4982225;28;20034;-77
2023/12/27 01:51:26;;;;;;;0.35;0.35;;;;;;;10.59;100.00;98815.38;4997667;28;20509;-76
2023/12/27 01:53:52;;;;;;;0.40;0.40;;;;;;;10.60;100.00;98812.47;4998154;28;20049;-77
2023/12/27 01:56:18;;;;;;;0.30;0.30;;;;;;;10.60;100.00;98798.22;4997735;28;20137;-76
2023/12/27 01:58:44;;;;;;;0.30;0.30;;;;;;;10.61;100.00;98794.47;5013560;28;20084;-76
2023/12/27 02:01:09;;;;;;;0.30;0.30;;;;;;;10.57;100.00;98776.09;4997548;28;20022;-77
2023/12/27 02:03:38;;;;;;;0.30;0.30;;;;;;;10.59;100.00;98767.81;4997556;28;20472;-76
2023/12/27 02:06:04;;;;;;;0.30;0.30;;;;;;;10.56;100.00;98755.66;4980518;28;20084;-77
2023/12/27 02:08:31;;;;;;;0.30;0.30;;;;;;;10.58;100.00;98750.03;5013452;28;20042;-77
2023/12/27 02:10:57;;;;;;;0.30;0.30;;;;;;;10.60;100.00;98747.16;5012693;28;20399;-76
2023/12/27 02:13:25;;;;;;;0.40;0.40;;;;;;;10.61;100.00;98743.41;4981224;28;20084;-77
2023/12/27 02:15:51;;;;;;;0.30;0.30;;;;;;;10.62;100.00;98728.94;4981498;28;20033;-77
2023/12/27 02:18:18;;;;;;;0.30;0.30;;;;;;;10.64;100.00;98726.81;4981415;28;20030;-77
2023/12/27 02:20:44;;;;;;;0.30;0.30;;;;;;;10.65;100.00;98712.34;4980845;28;20045;-78
2023/12/27 02:23:13;;;;;;;0.40;0.40;;;;;;;10.63;100.00;98704.50;4997120;28;20030;-78
2023/12/27 02:25:39;;;;;;;0.40;0.40;;;;;;;10.67;100.00;98694.13;4964851;28;20125;-77
2023/12/27 02:28:10;;;;;;;0.40;0.40;;;;;;;10.63;100.00;98674.13;4981452;28;20057;-77
2023/12/27 02:30:38;;;;;;;0.30;0.30;;;;;;;10.64;100.00;98683.81;4996682;28;20030;-77
2023/12/27 02:33:03;;;;;;;0.40;0.40;;;;;;;10.68;100.00;98679.66;5012917;28;20548;-77
2023/12/27 02:35:29;;;;;;;0.35;0.35;;;;;;;10.68;100.00;98658.13;4996695;28;20037;-77
2023/12/27 02:37:55;;;;;;;0.30;0.30;;;;;;;10.67;100.00;98656.50;4980771;28;20029;-77
2023/12/27 02:40:21;;;;;;;0.40;0.40;;;;;;;10.67;100.00;98645.75;4980625;28;20034;-77
2023/12/27 02:42:47;;;;;;;0.40;0.40;;;;;;;10.66;100.00;98644.09;4980371;28;20026;-77
2023/12/27 02:45:14;;;;;;;0.40;0.40;;;;;;;10.65;100.00;98634.41;5012873;28;20064;-77
2023/12/27 02:47:41;;;;;;;0.40;0.40;;;;;;;10.63;100.00;98612.31;5012907;28;20053;-77
2023/12/27 02:50:10;;;;;;;0.35;0.35;;;;;;;10.64;100.00;98606.72;4980181;28;20072;-78
2023/12/27 02:52:41;;;;;;;0.30;0.30;;;;;;;10.65;100.00;98599.47;4996045;28;20033;-77
2023/12/27 02:55:06;;;;;;;0.30;0.30;;;;;;;10.65;100.00;98580.66;4996761;28;20137;-80
2023/12/27 02:57:32;;;;;;;0.30;0.30;;;;;;;10.63;100.00;98569.31;4995988;28;20121;-77
2023/12/27 03:00:02;;;;;;;0.32;0.32;;;;;;;10.62;100.00;98549.69;4996527;28;20034;-77
2023/12/27 03:02:31;;;;;;;0.40;0.40;;;;;;;10.64;100.00;98546.75;4996257;28;20477;-77
2023/12/27 03:04:59;;;;;;;0.40;0.40;;;;;;;10.63;100.00;98529.81;5013900;28;20033;-77
2023/12/27 03:07:25;;;;;;;0.30;0.30;;;;;;;10.65;100.00;98529.59;4980563;28;20366;-77
2023/12/27 03:09:53;;;;;;;0.40;0.40;;;;;;;10.64;100.00;98520.72;4996588;28;20061;-77
2023/12/27 03:12:22;;;;;;;0.40;0.40;;;;;;;10.64;100.00;98498.38;5012478;28;20124;-77
2023/12/27 03:14:50;;;;;;;0.30;0.30;;;;;;;10.66;100.00;98493.59;4996478;28;20045;-77
2023/12/27 03:17:18;;;;;;;0.40;0.40;;;;;;;10.68;100.00;98494.19;5013024;28;20030;-78
2023/12/27 03:19:43;;;;;;;0.30;0.30;;;;;;;10.66;100.00;98464.84;5012347;28;20472;-77
2023/12/27 03:22:12;;;;;;;0.30;0.30;;;;;;;10.67;100.00;98461.13;4996051;28;20026;-77
2023/12/27 03:24:48;;;;;;;0.40;0.40;;;;;;;10.69;100.00;98453.66;4997280;28;20384;-77
2023/12/27 03:27:13;;;;;;;0.35;0.35;;;;;;;10.73;100.00;98454.00;4996877;28;20034;-77
2023/12/27 03:29:39;;;;;;;0.40;0.40;;;;;;;10.74;100.00;98436.81;5012187;28;20144;-78
2023/12/27 03:32:05;;;;;;;0.40;0.40;;;;;;;10.76;100.00;98430.16;4980334;28;20496;-77
2023/12/27 03:34:31;;;;;;;0.30;0.30;;;;;;;10.78;100.00;98425.38;4995684;28;20034;-78
2023/12/27 03:36:56;;;;;;;0.40;0.40;;;;;;;10.77;100.00;98415.69;5011753;28;20034;-77
2023/12/27 03:39:22;;;;;;;0.32;0.32;;;;;;;10.79;100.00;98392.03;5012251;28;20022;-77
2023/12/27 03:41:48;;;;;;;0.32;0.32;;;;;;;10.84;100.00;98387.84;4980213;28;20038;-77
2023/12/27 03:44:16;;;;;;;0.32;0.32;;;;;;;10.84;100.00;98366.34;4995989;28;20121;-77
2023/12/27 03:46:42;;;;;;;0.40;0.40;;;;;;;10.86;100.00;98359.69;4995814;28;20477;-77
2023/12/27 03:49:07;;;;;;;0.40;0.40;;;;;;;10.88;100.00;98356.75;4979705;28;20034;-77
2023/12/27 03:51:33;;;;;;;0.35;0.35;;;;;;;10.90;100.00;98347.41;5012206;28;20037;-78
2023/12/27 03:54:05;;;;;;;0.40;0.40;;;;;;;10.92;100.00;98331.03;4995922;28;20026;-77
2023/12/27 03:56:30;;;;;;;0.40;0.40;;;;;;;10.93;100.00;98328.09;4980247;28;20053;-77
2023/12/27 03:59:03;;;;;;;0.30;0.30;;;;;;;10.95;100.00;98307.16;4979621;28;20038;-77
2023/12/27 04:01:31;;;;;;;0.40;0.40;;;;;;;10.96;100.00;98295.38;4980335;28;20380;-77
2023/12/27 04:03:57;;;;;;;0.30;0.30;;;;;;;10.93;100.00;98293.16;4995762;28;20038;-77
2023/12/27 04:06:26;;;;;;;0.40;0.40;;;;;;;10.98;100.00;98287.03;4995724;28;20091;-77
2023/12/27 04:08:54;;;;;;;0.40;0.40;;;;;;;11.00;100.00;98276.88;4996176;28;20026;-77
2023/12/27 04:11:22;;;;;;;0.30;0.30;;;;;;;11.03;100.00;98262.13;4996045;28;20033;-77
2023/12/27 04:13:48;;;;;;;0.40;0.40;;;;;;;11.05;100.00;98258.16;4996203;28;20030;-77
2023/12/27 04:16:14;;;;;;;0.30;0.30;;;;;;;11.09;100.00;98235.09;5012201;28;20457;-77
2023/12/27 04:18:40;;;;;;;0.40;0.40;;;;;;;11.10;100.00;98233.22;5011824;28;20117;-77
2023/12/27 04:21:05;;;;;;;0.30;0.30;;;;;;;11.10;100.00;98222.47;4995397;28;20559;-77
2023/12/27 04:23:33;;;;;;;0.40;0.40;;;;;;;11.13;100.00;98214.72;4979096;28;20388;-77
2023/12/27 04:25:59;;;;;;;0.32;0.32;;;;;;;11.10;100.00;98187.50;4994561;28;20033;-78
2023/12/27 04:28:25;;;;;;;0.40;0.40;;;;;;;11.18;100.00;98195.19;4978968;28;20439;-78
2023/12/27 04:30:50;;;;;;;0.40;0.40;;;;;;;11.21;100.00;98186.63;4978784;28;20034;-77
2023/12/27 04:33:16;;;;;;;0.50;0.50;;;;;;;11.21;100.00;98176.69;5011632;28;20042;-77
2023/12/27 04:35:43;;;;;;;0.40;0.40;;;;;;;11.26;100.00;98173.25;4998022;28;20034;-77
2023/12/27 04:38:14;;;;;;;0.38;0.38;;;;;;;11.26;100.00;98161.69;4998469;28;20053;-78
2023/12/27 04:40:44;;;;;;;0.40;0.40;;;;;;;11.25;100.00;98139.38;5015146;28;20033;-77
2023/12/27 04:43:13;;;;;;;0.35;0.35;;;;;;;11.30;100.00;98158.28;4999170;28;20168;-77
2023/12/27 04:45:38;;;;;;;0.38;0.38;;;;;;;11.33;100.00;98148.91;5015090;28;20033;-77
2023/12/27 04:48:11;;;;;;;0.38;0.38;;;;;;;11.32;100.00;98137.31;4999129;28;20034;-77
2023/12/27 04:50:56;;;;;;;0.50;0.50;;;;;;;11.32;100.00;98121.16;5002492;28;20041;-77
2023/12/27 04:53:22;;;;;;;0.40;0.40;;;;;;;11.40;100.00;98117.25;4999024;28;20072;-77
2023/12/27 04:55:56;;;;;;;0.40;0.40;;;;;;;11.39;100.00;98127.22;4982984;28;20069;-77
2023/12/27 04:58:25;;;;;;;0.40;0.40;;;;;;;11.41;100.00;98118.91;5015133;28;20033;-77
2023/12/27 05:00:50;;;;;;;0.40;0.40;;;;;;;11.45;100.00;98123.53;5014838;28;20052;-77
2023/12/27 05:03:16;;;;;;;0.40;0.40;;;;;;;11.45;100.00;98118.13;4982452;28;20096;-78
2023/12/27 05:05:42;;;;;;;0.40;0.40;;;;;;;11.48;100.00;98119.53;4998392;28;20439;-77
2023/12/27 05:08:10;;;;;;;0.47;0.40;;;;;;;11.47;100.00;98096.38;4982465;28;20132;-77
2023/12/27 05:10:36;;;;;;;0.40;0.40;;;;;;;11.53;100.00;98108.03;4982641;28;20030;-77
2023/12/27 05:13:02;;;;;;;0.35;0.35;;;;;;;11.55;100.00;98098.66;4998374;28;20114;-77
2023/12/27 05:15:28;;;;;;;0.40;0.40;;;;;;;11.56;100.00;98104.84;4998827;28;20543;-77
2023/12/27 05:17:53;;;;;;;0.40;0.40;;;;;;;11.58;100.00;98114.31;5015897;28;20080;-78
2023/12/27 05:20:19;;;;;;;0.40;0.40;;;;;;;11.58;100.00;98102.72;4998480;28;20033;-78
2023/12/27 05:22:47;;;;;;;0.40;0.40;;;;;;;11.60;100.00;98120.25;5014876;28;20080;-78
2023/12/27 05:25:13;;;;;;;0.40;0.40;;;;;;;11.59;100.00;98129.41;5014856;28;20446;-77
2023/12/27 05:27:42;;;;;;;0.40;0.40;;;;;;;11.35;100.00;98153.00;4998381;28;20042;-77
2023/12/27 05:30:09;;;;;;;0.30;0.30;;;;;;;10.59;100.00;98176.63;4981719;28;20081;-77
2023/12/27 05:32:34;;;;;;;0.40;0.40;;;;;;;10.01;100.00;98181.06;5014106;28;20038;-77
2023/12/27 05:35:03;;;;;;;0.40;0.40;;;;;;;9.66;100.00;98159.63;5013779;28;20064;-78
2023/12/27 05:37:29;;;;;;;0.30;0.30;;;;;;;9.45;100.00;98171.72;4999240;28;20052;-78
2023/12/27 05:39:55;;;;;;;0.40;0.40;;;;;;;9.28;100.00;98170.75;5014717;28;20477;-77
2023/12/27 05:42:25;;;;;;;0.30;0.30;;;;;;;9.22;100.00;98188.59;4998062;28;20384;-78
2023/12/27 05:44:51;;;;;;;0.40;0.40;;;;;;;9.15;100.00;98175.28;4981772;28;20029;-77
2023/12/27 05:47:16;;;;;;;0.32;0.32;;;;;;;9.11;100.00;98178.66;4996806;28;20037;-77
2023/12/27 05:49:44;;;;;;;0.40;0.40;;;;;;;9.07;100.00;98186.34;4998057;28;20125;-77
2023/12/27 05:52:10;;;;;;;0.40;0.40;;;;;;;9.03;100.00;98185.97;5014332;28;20029;-77
2023/12/27 05:54:36;;;;;;;0.35;0.35;;;;;;;9.02;100.00;98183.53;4997703;28;20037;-77
2023/12/27 05:57:03;;;;;;;0.40;0.40;;;;;;;8.98;100.00;98188.53;4981732;28;20033;-78
2023/12/27 05:59:31;;;;;;;0.40;0.40;;;;;;;8.93;100.00;98191.06;4997772;28;20033;-77
2023/12/27 06:01:57;;;;;;;0.40;0.40;;;;;;;8.95;100.00;98198.91;4997704;28;20030;-77
2023/12/27 06:04:22;;;;;;;0.40;0.40;;;;;;;8.93;100.00;98207.16;4997534;28;20096;-77
2023/12/27 06:06:49;;;;;;;0.40;0.40;;;;;;;8.90;100.00;98215.66;5014170;28;20034;-77
2023/12/27 06:09:17;;;;;;;0.40;0.40;;;;;;;8.87;100.00;98220.66;5014023;28;20070;-77
2023/12/27 06:11:43;;;;;;;0.40;0.40;;;;;;;8.77;100.00;98213.97;5013765;28;20031;-77
2023/12/27 06:14:09;;;;;;;0.40;0.40;;;;;;;8.82;100.00;98226.69;5013528;28;20034;-78
2023/12/27 06:16:35;;;;;;;0.32;0.32;;;;;;;8.81;100.00;98222.34;5013349;28;20036;-77
2023/12/27 06:19:01;;;;;;;0.38;0.38;;;;;;;8.82;100.00;98225.88;4997381;28;20041;-77
2023/12/27 06:21:29;;;;;;;0.40;0.40;;;;;;;8.78;100.00;98223.63;4981377;28;20038;-78
2023/12/27 06:23:58;;;;;;;0.40;0.40;;;;;;;8.83;100.00;98246.25;4997315;28;20083;-78
2023/12/27 06:26:23;;;;;;;0.30;0.30;;;;;;;8.80;100.00;98236.81;5013115;28;20037;-77
2023/12/27 06:28:52;;;;;;;0.40;0.40;;;;;;;8.81;100.00;98235.75;4981162;28;20030;-77
2023/12/27 06:31:17;;;;;;;0.30;0.30;;;;;;;8.79;100.00;98238.69;4996890;28;20581;-77
2023/12/27 06:33:43;;;;;;;0.30;0.30;;;;;;;8.80;100.00;98245.66;4980918;28;20129;-77
2023/12/27 06:36:12;;;;;;;0.40;0.40;;;;;;;8.75;100.00;98248.19;5013306;28;20038;-77
2023/12/27 06:38:40;;;;;;;0.40;0.40;;;;;;;8.78;100.00;98249.59;5013226;28;20027;-78
2023/12/27 06:41:07;;;;;;;0.40;0.40;;;;;;;8.76;100.00;98238.31;5012985;28;20515;-77
2023/12/27 06:43:36;;;;;;;0.40;0.40;;;;;;;8.76;100.00;98244.50;5013298;28;20041;-77
2023/12/27 06:46:01;;;;;;;0.40;0.40;;;;;;;8.74;100.00;98246.56;5012692;28;20128;-77
2023/12/27 06:48:27;;;;;;;0.40;0.40;;;;;;;8.71;100.00;98249.69;4996404;28;20065;-77
2023/12/27 06:50:52;;;;;;;0.30;0.30;;;;;;;8.71;100.00;98243.53;5012906;28;20481;-77
2023/12/27 06:53:18;;;;;;;0.40;0.40;;;;;;;8.73;100.00;98244.94;4996423;28;20033;-78
2023/12/27 06:55:47;;;;;;;0.40;0.40;;;;;;;8.73;100.00;98233.38;4996755;28;20046;-77
2023/12/27 06:58:15;;;;;;;0.40;0.40;;;;;;;8.72;100.00;98231.75;5012174;28;20164;-77
2023/12/27 07:00:41;;;;;;;0.40;0.40;;;;;;;8.74;100.00;98235.84;4996712;28;20065;-77
2023/12/27 07:03:07;;;;;;;0.40;0.40;;;;;;;8.74;100.00;98229.69;4996568;28;20111;-77
2023/12/27 07:05:33;;;;;;;0.40;0.40;;;;;;;8.73;100.00;98234.22;4963818;28;20038;-79
2023/12/27 07:08:00;;;;;;;0.30;0.30;;;;;;;8.74;100.00;98232.38;5013634;28;20534;-77
2023/12/27 07:10:26;;;;;;;0.45;0.45;;;;;;;8.76;100.00;98233.78;4995960;28;20029;-77
2023/12/27 07:12:52;;;;;;;0.40;0.40;;;;;;;8.74;100.00;98225.13;5012540;28;20373;-77
2023/12/27 07:15:21;;;;;;;0.40;0.40;;;;;;;8.77;100.00;98219.31;4995703;28;20107;-77
2023/12/27 07:17:47;;;;;;;0.32;0.32;;;;;;;8.77;100.00;98222.00;4980240;28;20034;-78
2023/12/27 07:20:12;;;;;;;0.40;0.40;;;;;;;8.76;100.00;98231.09;4995536;28;20044;-79
2023/12/27 07:22:43;;;;;;;0.40;0.40;;;;;;;8.76;100.00;98223.06;5011863;28;20026;-78
2023/12/27 07:25:12;;;;;;;0.40;0.40;;;;;;;8.78;100.00;98228.16;4980517;28;20046;-77
2023/12/27 07:27:43;;;;;;;0.40;0.40;;;;;;;8.76;100.00;98241.81;4995900;28;20034;-78
2023/12/27 07:30:09;;;;;;;0.40;0.40;;;;;;;8.76;100.00;98255.22;5012473;28;20066;-78
2023/12/27 07:32:37;;;;;;;0.32;0.32;;;;;;;8.76;100.00;98260.56;5012209;28;20076;-77
2023/12/27 07:35:04;;;;;;;0.40;0.40;;;;;;;8.77;100.00;98272.91;4996662;28;20037;-78
2023/12/27 07:37:31;;;;;;;0.40;0.40;;;;;;;8.74;100.00;98269.88;4980792;28;20481;-77
2023/12/27 07:39:57;;;;;;;0.40;0.40;;;;;;;8.73;100.00;98271.75;4963988;28;20092;-77
2023/12/27 07:42:25;;;;;;;0.50;0.50;;;;;;;8.69;100.00;98270.53;4996376;28;20033;-77
2023/12/27 07:44:53;;;;;;;0.40;0.40;;;;;;;8.73;100.00;98276.25;4980204;28;20034;-77
2023/12/27 07:47:22;;;;;;;0.40;0.40;;;;;;;8.70;100.00;98266.81;5011928;28;20041;-77
2023/12/27 07:49:47;;;;;;;0.40;0.40;;;;;;;8.66;100.00;98254.91;4996348;28;20475;-77
2023/12/27 07:52:16;;;;;;;0.40;0.40;;;;;;;8.65;100.00;98247.91;5012566;28;20034;-77
2023/12/27 07:54:42;;;;;;;0.50;0.50;;;;;;;8.69;100.00;98259.81;4980266;28;20092;-78
2023/12/27 07:57:08;;;;;;;0.40;0.40;;;;;;;8.65;100.00;98241.72;4979786;28;20029;-77
2023/12/27 07:59:33;;;;;;;0.40;0.40;;;;;;;8.67;100.00;98258.41;4979951;28;20042;-77
2023/12/27 08:01:59;;;;;;;0.30;0.30;;;;;;;8.63;100.00;98255.38;4995300;28;20092;-78
2023/12/27 08:04:25;;;;;;;0.40;0.40;;;;;;;8.56;100.00;98243.91;4995652;28;20038;-78
2023/12/27 08:06:51;;;;;;;0.40;0.40;;;;;;;8.59;100.00;98263.00;4996056;28;20460;-77
2023/12/27 08:09:18;;;;;;;0.40;0.40;;;;;;;8.58;100.00;98274.78;4996351;28;20030;-79
2023/12/27 08:11:44;;;;;;;0.40;0.40;;;;;;;8.57;100.00;98281.19;5017069;28;20084;-77
2023/12/27 08:14:10;;;;;;;0.40;0.40;;;;;;;8.58;100.00;98268.63;4983713;28;20061;-77
2023/12/27 08:16:35;;;;;;;0.40;0.40;;;;;;;8.58;100.00;98264.06;5015612;28;20045;-77
2023/12/27 08:19:01;;;;;;;0.40;0.40;;;;;;;8.54;100.00;98256.69;4999462;28;20033;-77
2023/12/27 08:21:29;;;;;;;0.40;0.40;;;;;;;8.53;100.00;98261.25;4983299;28;20050;-78
2023/12/27 08:23:55;;;;;;;0.30;0.30;;;;;;;8.50;100.00;98258.22;5016082;28;20129;-77
2023/12/27 08:26:21;;;;;;;0.40;0.40;;;;;;;8.47;100.00;98258.66;4982778;28;20128;-77
2023/12/27 08:28:49;;;;;;;0.40;0.40;;;;;;;8.51;100.00;98268.69;5015437;28;20033;-77
2023/12/27 08:31:14;;;;;;;0.40;0.40;;;;;;;8.49;100.00;98260.03;4999371;28;20041;-77
2023/12/27 08:33:40;;;;;;;0.38;0.38;;;;;;;8.49;100.00;98270.75;4999002;28;20030;-77
2023/12/27 08:36:06;;;;;;;0.38;0.38;;;;;;;8.46;100.00;98263.16;5015184;28;20034;-77
2023/12/27 08:38:32;;;;;;;0.40;0.40;;;;;;;8.42;100.00;98253.16;4999414;28;20561;-77
2023/12/27 08:41:03;;;;;;;0.30;0.30;;;;;;;8.41;100.00;98251.50;4983285;28;20128;-77
2023/12/27 08:43:29;;;;;;;0.40;0.40;;;;;;;8.40;100.00;98247.19;4999346;28;20396;-77
2023/12/27 08:45:59;;;;;;;0.40;0.40;;;;;;;8.34;100.00;98244.34;4999166;28;20029;-77
2023/12/27 08:48:28;;;;;;;0.40;0.40;;;;;;;8.39;100.00;98241.03;5014849;28;20034;-77
2023/12/27 08:50:53;;;;;;;0.40;0.40;;;;;;;8.38;100.00;98242.00;4994483;28;20180;-77
2023/12/27 08:53:25;;;;;;;0.40;0.40;;;;;;;8.40;100.00;98247.19;5000427;28;20453;-77
2023/12/27 08:55:51;;;;;;;0.40;0.40;;;;;;;8.41;100.00;98236.25;5015036;28;20038;-78
2023/12/27 08:58:16;;;;;;;0.40;0.40;;;;;;;8.46;100.00;98235.56;5014999;28;20045;-77
2023/12/27 09:00:42;;;;;;;0.38;0.38;;;;;;;8.47;100.00;98234.56;4998221;28;20026;-78
2023/12/27 09:03:08;;;;;;;0.40;0.40;;;;;;;8.46;100.00;98241.75;4998662;28;20113;-77
2023/12/27 09:05:34;;;;;;;0.40;0.40;;;;;;;8.46;100.00;98243.63;4998275;28;20034;-78
2023/12/27 09:07:59;;;;;;;0.30;0.30;;;;;;;8.43;100.00;98236.84;4998681;28;20072;-78
2023/12/27 09:10:26;;;;;;;0.40;0.40;;;;;;;8.46;100.00;98247.09;4998701;28;20034;-78
2023/12/27 09:12:52;;;;;;;0.40;0.40;;;;;;;8.46;100.00;98247.09;4998624;28;20060;-77
2023/12/27 09:15:17;;;;;;;0.40;0.40;;;;;;;8.47;100.00;98253.31;4982331;28;20410;-77
2023/12/27 09:17:43;;;;;;;0.40;0.40;;;;;;;8.49;100.00;98259.22;4998484;28;20069;-75
2023/12/27 09:20:11;;;;;;;0.30;0.30;;;;;;;8.51;100.00;98263.31;4998419;28;20064;-75
2023/12/27 09:22:39;;;;;;;0.35;0.35;;;;;;;8.53;100.00;98261.25;4981880;28;20033;-76
2023/12/27 09:25:07;;;;;;;0.40;0.40;;;;;;;8.54;100.00;98251.34;4982312;28;20056;-76
2023/12/27 09:27:33;;;;;;;0.40;0.40;;;;;;;8.57;100.00;98253.56;4998096;28;20420;-76
2023/12/27 09:29:59;;;;;;;0.40;0.40;;;;;;;8.58;100.00;98241.84;4982045;28;20483;-76
2023/12/27 09:32:27;;;;;;;0.40;0.40;;;;;;;8.58;100.00;98234.59;4997955;28;20533;-76
2023/12/27 09:34:52;;;;;;;0.50;0.50;;;;;;;8.60;100.00;98231.72;4998087;28;20044;-75
2023/12/27 09:37:18;;;;;;;0.40;0.40;;;;;;;8.59;100.00;98227.38;4998078;28;20037;-75
2023/12/27 09:39:44;;;;;;;0.40;0.40;;;;;;;8.60;100.00;98221.00;5013842;28;20069;-76
2023/12/27 09:42:12;;;;;;;0.40;0.40;;;;;;;8.59;100.00;98224.72;4998162;28;20053;-76
2023/12/27 09:44:38;;;;;;;0.40;0.40;;;;;;;8.60;100.00;98234.41;4981836;28;20041;-76
2023/12/27 09:47:09;;;;;;;0.40;0.40;;;;;;;8.63;100.00;98238.50;5014945;28;20038;-76
2023/12/27 09:49:36;;;;;;;0.40;0.40;;;;;;;8.62;100.00;98226.94;4998126;28;20125;-77
2023/12/27 09:52:12;;;;;;;0.40;0.40;;;;;;;8.67;100.00;98221.72;4965105;28;20041;-77
2023/12/27 09:54:37;;;;;;;0.40;0.40;;;;;;;8.70;100.00;98215.09;5012694;28;20136;-76
2023/12/27 09:57:04;;;;;;;0.40;0.40;;;;;;;8.69;100.00;98210.78;4995806;28;20374;-78
2023/12/27 09:59:39;;;;;;;0.40;0.40;;;;;;;8.63;100.00;98212.50;5012335;28;20033;-77
2023/12/27 10:02:12;;;;;;;0.40;0.40;;;;;;;8.58;100.00;98209.69;4996639;28;20464;-77
2023/12/27 10:04:56;;;;;;;0.50;0.50;;;;;;;8.57;100.00;98218.75;4979938;28;20040;-77
2023/12/27 10:07:22;;;;;;;0.40;0.40;;;;;;;8.51;100.00;98215.13;5013610;28;20499;-77
2023/12/27 10:09:49;;;;;;;0.40;0.40;;;;;;;8.52;100.00;98213.25;4997984;28;20487;-77
2023/12/27 10:12:14;;;;;;;0.40;0.40;;;;;;;8.50;100.00;98208.13;4981567;28;20036;-77
2023/12/27 10:14:40;;;;;;;0.40;0.40;;;;;;;8.53;100.00;98212.22;4981305;28;20034;-77
2023/12/27 10:17:06;;;;;;;0.40;0.40;;;;;;;8.52;100.00;98215.94;4997222;28;20034;-77
2023/12/27 10:19:44;;;;;;;0.40;0.40;;;;;;;8.49;100.00;98219.06;4997679;28;20084;-77
2023/12/27 10:22:15;;;;;;;0.40;0.40;;;;;;;8.52;100.00;98215.94;5013867;28;20473;-77
2023/12/27 10:24:41;;;;;;;0.40;0.40;;;;;;;8.51;100.00;98215.13;5013676;28;20040;-77
2023/12/27 10:27:08;;;;;;;0.40;0.40;;;;;;;8.54;100.00;98208.50;5000035;28;20046;-77
2023/12/27 10:29:34;;;;;;;0.40;0.40;;;;;;;8.53;100.00;98213.03;4967002;28;20477;-76
2023/12/27 10:32:01;;;;;;;0.40;0.40;;;;;;;8.54;100.00;98208.50;4980443;28;20034;-76
2023/12/27 10:34:27;;;;;;;0.43;0.43;;;;;;;8.55;100.00;98218.19;4981022;28;20121;-76
2023/12/27 10:36:55;;;;;;;0.47;0.47;;;;;;;8.56;100.00;98222.47;5011747;28;20440;-77
2023/12/27 10:39:25;;;;;;;0.40;0.40;;;;;;;8.56;100.00;98209.91;4981815;28;20140;-76
2023/12/27 10:41:54;;;;;;;0.40;0.40;;;;;;;8.53;100.00;98213.03;4997018;28;20472;-77
2023/12/27 10:44:24;;;;;;;0.40;0.40;;;;;;;8.54;100.00;98213.84;5012754;28;20045;-76
2023/12/27 10:46:50;;;;;;;0.40;0.40;;;;;;;8.53;100.00;98220.25;4996958;28;20136;-77
2023/12/27 10:49:16;;;;;;;0.50;0.50;;;;;;;8.56;100.00;98227.84;4997106;28;20116;-77
2023/12/27 10:51:45;;;;;;;0.40;0.40;;;;;;;8.55;100.00;98226.22;5013167;28;20384;-76
2023/12/27 10:54:11;;;;;;;0.40;0.40;;;;;;;8.52;100.00;98227.47;5012670;28;20025;-76
2023/12/27 10:56:38;;;;;;;0.40;0.40;;;;;;;8.52;100.00;98235.50;4980659;28;20084;-77
2023/12/27 10:59:10;;;;;;;0.40;0.40;;;;;;;8.49;100.00;98243.16;4980564;28;20291;-76
2023/12/27 11:01:39;;;;;;;0.40;0.40;;;;;;;8.44;100.00;98227.78;4980623;28;20033;-78
2023/12/27 11:04:07;;;;;;;0.30;0.30;;;;;;;8.42;100.00;98229.06;5012561;28;20034;-76
2023/12/27 11:06:35;;;;;;;0.40;0.40;;;;;;;8.29;100.00;98273.63;5000328;28;20065;-77
2023/12/27 11:09:03;;;;;;;0.40;0.40;;;;;;;7.80;100.00;98299.38;5000044;28;20126;-77
2023/12/27 11:11:30;;;;;;;0.40;0.40;;;;;;;7.43;100.00;98317.97;5012781;28;20026;-77
2023/12/27 11:13:57;;;;;;;0.40;0.40;;;;;;;7.17;100.00;98328.81;4996280;28;20394;-77
2023/12/27 11:16:23;;;;;;;0.40;0.40;;;;;;;6.99;100.00;98316.16;4980463;28;20456;-76
2023/12/27 11:18:53;;;;;;;0.40;0.40;;;;;;;6.92;100.00;98305.50;5012594;28;20026;-76
2023/12/27 11:21:19;;;;;;;0.40;0.40;;;;;;;6.94;100.00;98321.31;4980655;28;20040;-76
2023/12/27 11:23:45;;;;;;;0.40;0.40;;;;;;;6.87;100.00;98299.97;4979660;28;20116;-76
2023/12/27 11:26:10;;;;;;;0.40;0.40;;;;;;;6.87;100.00;98297.28;4979795;28;20034;-76
2023/12/27 11:28:40;;;;;;;0.40;0.40;;;;;;;6.85;100.00;98309.22;4980457;28;20049;-77